sensor_id;sensor_type;location;lat;lon;timestamp;pressure;altitude;pressure_sealevel;temperature
6454;BMP180;3260;52.438;13.502;2023-04-25T04:02:36;99854.00;;;9.10
6454;BMP180;3260;52.438;13.502;2023-04-25T04:05:07;99844.00;;;9.40
6454;BMP180;3260;52.438;13.502;2023-04-25T04:07:36;99849.00;;;9.20
6454;BMP180;3260;52.438;13.502;2023-04-25T04:10:07;99850.00;;;9.30
6454;BMP180;3260;52.438;13.502;2023-04-25T04:12:36;99856.00;;;9.50
6454;BMP180;3260;52.438;13.502;2023-04-25T04:15:06;99862.00;;;9.60
6454;BMP180;3260;52.438;13.502;2023-04-25T04:17:37;99865.00;;;9.00
6454;BMP180;3260;52.438;13.502;2023-04-25T04:20:07;99851.00;;;9.00
6454;BMP180;3260;52.438;13.502;2023-04-25T04:22:35;99866.00;;;9.00
6454;BMP180;3260;52.438;13.502;2023-04-25T04:25:05;99869.00;;;9.00
6454;BMP180;3260;52.438;13.502;2023-04-25T04:27:34;99862.00;;;9.20
6454;BMP180;3260;52.438;13.502;2023-04-25T04:30:03;99861.00;;;9.00
6454;BMP180;3260;52.438;13.502;2023-04-25T04:32:31;99862.00;;;9.10
6454;BMP180;3260;52.438;13.502;2023-04-25T04:35:03;99872.00;;;9.30
6454;BMP180;3260;52.438;13.502;2023-04-25T04:37:33;99867.00;;;9.20
6454;BMP180;3260;52.438;13.502;2023-04-25T04:40:02;99867.00;;;9.30
6454;BMP180;3260;52.438;13.502;2023-04-25T04:42:32;99863.00;;;9.30
6454;BMP180;3260;52.438;13.502;2023-04-25T04:45:01;99872.00;;;9.30
6454;BMP180;3260;52.438;13.502;2023-04-25T04:47:29;99873.00;;;9.40
6454;BMP180;3260;52.438;13.502;2023-04-25T04:49:59;99872.00;;;9.20
6454;BMP180;3260;52.438;13.502;2023-04-25T04:52:29;99881.00;;;9.20
6454;BMP180;3260;52.438;13.502;2023-04-25T04:54:57;99883.00;;;9.30
6454;BMP180;3260;52.438;13.502;2023-04-25T04:57:25;99883.00;;;9.30
6454;BMP180;3260;52.438;13.502;2023-04-25T04:59:54;99873.00;;;9.70
6454;BMP180;3260;52.438;13.502;2023-04-25T05:02:22;99890.00;;;9.60
6454;BMP180;3260;52.438;13.502;2023-04-25T05:04:50;99874.00;;;9.70
6454;BMP180;3260;52.438;13.502;2023-04-25T05:07:19;99887.00;;;10.00
6454;BMP180;3260;52.438;13.502;2023-04-25T05:09:49;99883.00;;;9.70
6454;BMP180;3260;52.438;13.502;2023-04-25T05:12:17;99845.00;;;9.70
6454;BMP180;3260;52.438;13.502;2023-04-25T05:14:45;99877.00;;;9.50
6454;BMP180;3260;52.438;13.502;2023-04-25T05:17:14;99886.00;;;9.70
6454;BMP180;3260;52.438;13.502;2023-04-25T05:19:42;99885.00;;;9.60
6454;BMP180;3260;52.438;13.502;2023-04-25T05:22:10;99885.00;;;9.50
6454;BMP180;3260;52.438;13.502;2023-04-25T05:24:38;99894.00;;;9.60
6454;BMP180;3260;52.438;13.502;2023-04-25T05:27:08;99896.00;;;9.70
6454;BMP180;3260;52.438;13.502;2023-04-25T05:29:36;99893.00;;;9.60
6454;BMP180;3260;52.438;13.502;2023-04-25T05:32:05;99896.00;;;9.70
6454;BMP180;3260;52.438;13.502;2023-04-25T05:34:34;99870.00;;;9.60
6454;BMP180;3260;52.438;13.502;2023-04-25T05:37:03;99892.00;;;9.50
6454;BMP180;3260;52.438;13.502;2023-04-25T05:39:31;99888.00;;;9.70
6454;BMP180;3260;52.438;13.502;2023-04-25T05:42:00;99896.00;;;9.50
6454;BMP180;3260;52.438;13.502;2023-04-25T05:44:32;99881.00;;;9.50
6454;BMP180;3260;52.438;13.502;2023-04-25T05:47:00;99903.00;;;9.50
6454;BMP180;3260;52.438;13.502;2023-04-25T05:49:28;99904.00;;;9.70
6454;BMP180;3260;52.438;13.502;2023-04-25T05:51:56;99909.00;;;9.70
6454;BMP180;3260;52.438;13.502;2023-04-25T05:54:25;99907.00;;;9.90
6454;BMP180;3260;52.438;13.502;2023-04-25T05:56:53;99908.00;;;10.20
6454;BMP180;3260;52.438;13.502;2023-04-25T05:59:21;99908.00;;;10.10
6454;BMP180;3260;52.438;13.502;2023-04-25T06:01:51;99904.00;;;9.90
6454;BMP180;3260;52.438;13.502;2023-04-25T06:04:19;99921.00;;;9.70
6454;BMP180;3260;52.438;13.502;2023-04-25T06:06:48;99925.00;;;9.60
6454;BMP180;3260;52.438;13.502;2023-04-25T06:09:16;99911.00;;;9.70
6454;BMP180;3260;52.438;13.502;2023-04-25T06:11:45;99926.00;;;10.00
6454;BMP180;3260;52.438;13.502;2023-04-25T06:14:13;99922.00;;;10.00
6454;BMP180;3260;52.438;13.502;2023-04-25T06:16:41;99923.00;;;9.70
6454;BMP180;3260;52.438;13.502;2023-04-25T06:19:11;99926.00;;;9.70
6454;BMP180;3260;52.438;13.502;2023-04-25T06:21:39;99932.00;;;9.70
6454;BMP180;3260;52.438;13.502;2023-04-25T06:24:08;99915.00;;;9.70
6454;BMP180;3260;52.438;13.502;2023-04-25T06:26:36;99931.00;;;9.50
6454;BMP180;3260;52.438;13.502;2023-04-25T06:29:04;99922.00;;;9.80
6454;BMP180;3260;52.438;13.502;2023-04-25T06:31:32;99928.00;;;10.20
6454;BMP180;3260;52.438;13.502;2023-04-25T06:34:01;99925.00;;;9.80
6454;BMP180;3260;52.438;13.502;2023-04-25T06:36:30;99925.00;;;9.90
6454;BMP180;3260;52.438;13.502;2023-04-25T06:38:58;99919.00;;;10.30
6454;BMP180;3260;52.438;13.502;2023-04-25T06:41:27;99913.00;;;10.30
6454;BMP180;3260;52.438;13.502;2023-04-25T06:43:55;99927.00;;;10.50
6454;BMP180;3260;52.438;13.502;2023-04-25T06:46:23;99929.00;;;10.90
6454;BMP180;3260;52.438;13.502;2023-04-25T06:48:51;99926.00;;;10.90
6454;BMP180;3260;52.438;13.502;2023-04-25T06:51:20;99933.00;;;10.50
6454;BMP180;3260;52.438;13.502;2023-04-25T06:53:51;99935.00;;;10.60
6454;BMP180;3260;52.438;13.502;2023-04-25T06:56:20;99928.00;;;10.30
6454;BMP180;3260;52.438;13.502;2023-04-25T06:58:50;99927.00;;;10.30
6454;BMP180;3260;52.438;13.502;2023-04-25T07:01:18;99935.00;;;10.30
6454;BMP180;3260;52.438;13.502;2023-04-25T07:03:48;99935.00;;;9.90
6454;BMP180;3260;52.438;13.502;2023-04-25T07:06:16;99930.00;;;10.00
6454;BMP180;3260;52.438;13.502;2023-04-25T07:08:44;99937.00;;;10.30
6454;BMP180;3260;52.438;13.502;2023-04-25T07:11:14;99938.00;;;10.40
6454;BMP180;3260;52.438;13.502;2023-04-25T07:13:42;99938.00;;;10.80
6454;BMP180;3260;52.438;13.502;2023-04-25T07:16:11;99945.00;;;10.90
6454;BMP180;3260;52.438;13.502;2023-04-25T07:18:39;99948.00;;;10.70
6454;BMP180;3260;52.438;13.502;2023-04-25T07:21:07;99947.00;;;10.50
6454;BMP180;3260;52.438;13.502;2023-04-25T07:23:35;99948.00;;;10.80
6454;BMP180;3260;52.438;13.502;2023-04-25T07:26:04;99958.00;;;10.70
6454;BMP180;3260;52.438;13.502;2023-04-25T07:28:33;99957.00;;;10.60
6454;BMP180;3260;52.438;13.502;2023-04-25T07:31:02;99963.00;;;10.30
6454;BMP180;3260;52.438;13.502;2023-04-25T07:33:30;99956.00;;;10.30
6454;BMP180;3260;52.438;13.502;2023-04-25T07:35:58;99965.00;;;10.20
6454;BMP180;3260;52.438;13.502;2023-04-25T07:38:27;99961.00;;;9.90
6454;BMP180;3260;52.438;13.502;2023-04-25T07:40:55;99961.00;;;10.00
6454;BMP180;3260;52.438;13.502;2023-04-25T07:43:23;99969.00;;;9.60
6454;BMP180;3260;52.438;13.502;2023-04-25T07:45:53;99972.00;;;9.40
6454;BMP180;3260;52.438;13.502;2023-04-25T07:48:21;99988.00;;;9.60
6454;BMP180;3260;52.438;13.502;2023-04-25T07:50:50;99993.00;;;9.60
6454;BMP180;3260;52.438;13.502;2023-04-25T07:53:18;99992.00;;;9.50
6454;BMP180;3260;52.438;13.502;2023-04-25T07:55:46;99991.00;;;9.60
6454;BMP180;3260;52.438;13.502;2023-04-25T07:58:14;99988.00;;;9.50
6454;BMP180;3260;52.438;13.502;2023-04-25T08:00:48;99985.00;;;9.40
6454;BMP180;3260;52.438;13.502;2023-04-25T08:03:18;99995.00;;;9.70
6454;BMP180;3260;52.438;13.502;2023-04-25T08:05:46;100002.00;;;9.70
6454;BMP180;3260;52.438;13.502;2023-04-25T08:08:15;99997.00;;;10.30
6454;BMP180;3260;52.438;13.502;2023-04-25T08:10:43;99997.00;;;9.90
6454;BMP180;3260;52.438;13.502;2023-04-25T08:13:12;99992.00;;;9.80
6454;BMP180;3260;52.438;13.502;2023-04-25T08:15:40;100007.00;;;9.60
6454;BMP180;3260;52.438;13.502;2023-04-25T08:18:09;100000.00;;;9.50
6454;BMP180;3260;52.438;13.502;2023-04-25T08:20:38;100002.00;;;9.70
6454;BMP180;3260;52.438;13.502;2023-04-25T08:23:07;100009.00;;;10.20
6454;BMP180;3260;52.438;13.502;2023-04-25T08:25:35;100012.00;;;10.40
6454;BMP180;3260;52.438;13.502;2023-04-25T08:28:05;100016.00;;;10.60
6454;BMP180;3260;52.438;13.502;2023-04-25T08:30:33;100028.00;;;10.70
6454;BMP180;3260;52.438;13.502;2023-04-25T08:33:02;100026.00;;;10.70
6454;BMP180;3260;52.438;13.502;2023-04-25T08:35:30;100030.00;;;10.80
6454;BMP180;3260;52.438;13.502;2023-04-25T08:38:01;100029.00;;;11.00
6454;BMP180;3260;52.438;13.502;2023-04-25T08:40:35;100033.00;;;11.70
6454;BMP180;3260;52.438;13.502;2023-04-25T08:43:07;100027.00;;;11.80
6454;BMP180;3260;52.438;13.502;2023-04-25T08:45:40;100040.00;;;12.10
6454;BMP180;3260;52.438;13.502;2023-04-25T08:48:12;100048.00;;;12.00
6454;BMP180;3260;52.438;13.502;2023-04-25T08:50:49;100045.00;;;12.10
6454;BMP180;3260;52.438;13.502;2023-04-25T08:53:25;100049.00;;;12.20
6454;BMP180;3260;52.438;13.502;2023-04-25T08:55:56;100043.00;;;11.70
6454;BMP180;3260;52.438;13.502;2023-04-25T08:58:25;100048.00;;;12.10
6454;BMP180;3260;52.438;13.502;2023-04-25T09:00:54;100057.00;;;12.00
6454;BMP180;3260;52.438;13.502;2023-04-25T09:03:23;100058.00;;;11.40
6454;BMP180;3260;52.438;13.502;2023-04-25T09:05:51;100057.00;;;11.90
6454;BMP180;3260;52.438;13.502;2023-04-25T09:08:22;100063.00;;;11.70
6454;BMP180;3260;52.438;13.502;2023-04-25T09:10:50;100074.00;;;12.10
6454;BMP180;3260;52.438;13.502;2023-04-25T09:13:26;100068.00;;;12.00
6454;BMP180;3260;52.438;13.502;2023-04-25T09:15:57;100078.00;;;11.90
6454;BMP180;3260;52.438;13.502;2023-04-25T09:18:26;100076.00;;;11.90
6454;BMP180;3260;52.438;13.502;2023-04-25T09:21:04;100077.00;;;11.60
6454;BMP180;3260;52.438;13.502;2023-04-25T09:23:45;100069.00;;;11.50
6454;BMP180;3260;52.438;13.502;2023-04-25T09:26:15;100086.00;;;11.00
6454;BMP180;3260;52.438;13.502;2023-04-25T09:28:43;100087.00;;;11.50
6454;BMP180;3260;52.438;13.502;2023-04-25T09:31:21;100096.00;;;11.90
6454;BMP180;3260;52.438;13.502;2023-04-25T09:33:50;100091.00;;;12.00
6454;BMP180;3260;52.438;13.502;2023-04-25T09:36:30;100097.00;;;12.10
6454;BMP180;3260;52.438;13.502;2023-04-25T09:39:00;100084.00;;;12.20
6454;BMP180;3260;52.438;13.502;2023-04-25T09:41:30;100105.00;;;12.80
6454;BMP180;3260;52.438;13.502;2023-04-25T09:44:01;100102.00;;;12.60
6454;BMP180;3260;52.438;13.502;2023-04-25T09:46:34;100095.00;;;12.80
6454;BMP180;3260;52.438;13.502;2023-04-25T09:49:07;100107.00;;;13.40
6454;BMP180;3260;52.438;13.502;2023-04-25T09:51:35;100106.00;;;13.20
6454;BMP180;3260;52.438;13.502;2023-04-25T09:54:05;100096.00;;;12.70
6454;BMP180;3260;52.438;13.502;2023-04-25T09:56:36;100100.00;;;12.30
6454;BMP180;3260;52.438;13.502;2023-04-25T09:59:07;100113.00;;;12.60
6454;BMP180;3260;52.438;13.502;2023-04-25T10:01:39;100099.00;;;12.20
6454;BMP180;3260;52.438;13.502;2023-04-25T10:04:11;100101.00;;;12.80
6454;BMP180;3260;52.438;13.502;2023-04-25T10:06:42;100114.00;;;12.70
6454;BMP180;3260;52.438;13.502;2023-04-25T10:09:13;100113.00;;;12.90
6454;BMP180;3260;52.438;13.502;2023-04-25T10:11:44;100105.00;;;12.90
6454;BMP180;3260;52.438;13.502;2023-04-25T10:14:14;100099.00;;;13.10
6454;BMP180;3260;52.438;13.502;2023-04-25T10:16:43;100085.00;;;13.00
6454;BMP180;3260;52.438;13.502;2023-04-25T10:19:12;100114.00;;;13.30
6454;BMP180;3260;52.438;13.502;2023-04-25T10:21:54;100115.00;;;13.00
6454;BMP180;3260;52.438;13.502;2023-04-25T10:24:26;100117.00;;;13.20
6454;BMP180;3260;52.438;13.502;2023-04-25T10:26:57;100114.00;;;13.00
6454;BMP180;3260;52.438;13.502;2023-04-25T10:29:26;100117.00;;;13.30
6454;BMP180;3260;52.438;13.502;2023-04-25T10:31:55;100123.00;;;13.10
6454;BMP180;3260;52.438;13.502;2023-04-25T10:34:38;100123.00;;;13.00
6454;BMP180;3260;52.438;13.502;2023-04-25T10:37:09;100126.00;;;13.30
6454;BMP180;3260;52.438;13.502;2023-04-25T10:39:41;100126.00;;;12.80
6454;BMP180;3260;52.438;13.502;2023-04-25T10:42:09;100135.00;;;12.80
6454;BMP180;3260;52.438;13.502;2023-04-25T10:44:38;100130.00;;;13.00
6454;BMP180;3260;52.438;13.502;2023-04-25T10:47:08;100113.00;;;13.90
6454;BMP180;3260;52.438;13.502;2023-04-25T10:49:41;100128.00;;;14.40
6454;BMP180;3260;52.438;13.502;2023-04-25T10:52:19;100136.00;;;14.20
6454;BMP180;3260;52.438;13.502;2023-04-25T10:54:55;100145.00;;;13.10
6454;BMP180;3260;52.438;13.502;2023-04-25T10:57:31;100147.00;;;13.00
6454;BMP180;3260;52.438;13.502;2023-04-25T11:00:07;100144.00;;;12.50
6454;BMP180;3260;52.438;13.502;2023-04-25T11:02:41;100144.00;;;12.50
6454;BMP180;3260;52.438;13.502;2023-04-25T11:05:10;100139.00;;;12.20
6454;BMP180;3260;52.438;13.502;2023-04-25T11:07:49;100140.00;;;12.40
6454;BMP180;3260;52.438;13.502;2023-04-25T11:10:32;100147.00;;;12.20
6454;BMP180;3260;52.438;13.502;2023-04-25T11:13:02;100148.00;;;12.80
6454;BMP180;3260;52.438;13.502;2023-04-25T11:15:31;100145.00;;;13.40
6454;BMP180;3260;52.438;13.502;2023-04-25T11:18:46;100155.00;;;13.90
6454;BMP180;3260;52.438;13.502;2023-04-25T11:21:32;100155.00;;;13.40
6454;BMP180;3260;52.438;13.502;2023-04-25T11:24:01;100167.00;;;13.00
6454;BMP180;3260;52.438;13.502;2023-04-25T11:26:31;100165.00;;;13.00
6454;BMP180;3260;52.438;13.502;2023-04-25T11:29:00;100167.00;;;12.50
6454;BMP180;3260;52.438;13.502;2023-04-25T11:31:29;100165.00;;;12.30
6454;BMP180;3260;52.438;13.502;2023-04-25T11:33:58;100165.00;;;12.40
6454;BMP180;3260;52.438;13.502;2023-04-25T11:36:26;100169.00;;;12.50
6454;BMP180;3260;52.438;13.502;2023-04-25T11:38:55;100167.00;;;12.70
6454;BMP180;3260;52.438;13.502;2023-04-25T11:41:25;100174.00;;;13.00
6454;BMP180;3260;52.438;13.502;2023-04-25T11:43:56;100183.00;;;12.80
6454;BMP180;3260;52.438;13.502;2023-04-25T11:46:25;100187.00;;;11.80
6454;BMP180;3260;52.438;13.502;2023-04-25T11:48:57;100189.00;;;11.10
6454;BMP180;3260;52.438;13.502;2023-04-25T11:51:25;100199.00;;;11.00
6454;BMP180;3260;52.438;13.502;2023-04-25T11:53:53;100185.00;;;11.40
6454;BMP180;3260;52.438;13.502;2023-04-25T11:56:22;100203.00;;;11.20
6454;BMP180;3260;52.438;13.502;2023-04-25T11:59:00;100164.00;;;11.20
6454;BMP180;3260;52.438;13.502;2023-04-25T12:01:30;100196.00;;;11.30
6454;BMP180;3260;52.438;13.502;2023-04-25T12:04:12;100208.00;;;11.70
6454;BMP180;3260;52.438;13.502;2023-04-25T12:06:45;100197.00;;;11.90
6454;BMP180;3260;52.438;13.502;2023-04-25T12:09:17;100204.00;;;12.10
6454;BMP180;3260;52.438;13.502;2023-04-25T12:11:48;100218.00;;;12.90
6454;BMP180;3260;52.438;13.502;2023-04-25T12:14:26;100217.00;;;12.30
6454;BMP180;3260;52.438;13.502;2023-04-25T12:16:57;100203.00;;;11.80
6454;BMP180;3260;52.438;13.502;2023-04-25T12:19:29;100216.00;;;12.00
6454;BMP180;3260;52.438;13.502;2023-04-25T12:22:00;100220.00;;;12.00
6454;BMP180;3260;52.438;13.502;2023-04-25T12:24:33;100225.00;;;11.70
6454;BMP180;3260;52.438;13.502;2023-04-25T12:27:06;100218.00;;;11.90
6454;BMP180;3260;52.438;13.502;2023-04-25T12:29:36;100209.00;;;12.30
6454;BMP180;3260;52.438;13.502;2023-04-25T12:32:16;100203.00;;;12.30
6454;BMP180;3260;52.438;13.502;2023-04-25T12:34:44;100226.00;;;12.60
6454;BMP180;3260;52.438;13.502;2023-04-25T12:37:13;100229.00;;;12.30
6454;BMP180;3260;52.438;13.502;2023-04-25T12:39:42;100215.00;;;12.40
6454;BMP180;3260;52.438;13.502;2023-04-25T12:42:10;100219.00;;;12.70
6454;BMP180;3260;52.438;13.502;2023-04-25T12:44:41;100226.00;;;12.50
6454;BMP180;3260;52.438;13.502;2023-04-25T12:47:09;100216.00;;;12.70
6454;BMP180;3260;52.438;13.502;2023-04-25T12:49:38;100214.00;;;12.90
6454;BMP180;3260;52.438;13.502;2023-04-25T12:52:06;100223.00;;;13.50
6454;BMP180;3260;52.438;13.502;2023-04-25T12:54:34;100221.00;;;13.50
6454;BMP180;3260;52.438;13.502;2023-04-25T12:57:02;100220.00;;;13.70
6454;BMP180;3260;52.438;13.502;2023-04-25T12:59:31;100210.00;;;14.70
6454;BMP180;3260;52.438;13.502;2023-04-25T13:02:01;100226.00;;;13.70
6454;BMP180;3260;52.438;13.502;2023-04-25T13:04:30;100236.00;;;12.90
6454;BMP180;3260;52.438;13.502;2023-04-25T13:06:58;100229.00;;;13.00
6454;BMP180;3260;52.438;13.502;2023-04-25T13:09:26;100236.00;;;12.60
6454;BMP180;3260;52.438;13.502;2023-04-25T13:11:55;100239.00;;;12.30
6454;BMP180;3260;52.438;13.502;2023-04-25T13:14:25;100236.00;;;12.70
6454;BMP180;3260;52.438;13.502;2023-04-25T13:16:53;100232.00;;;13.20
6454;BMP180;3260;52.438;13.502;2023-04-25T13:19:23;100242.00;;;13.00
6454;BMP180;3260;52.438;13.502;2023-04-25T13:21:52;100230.00;;;13.00
6454;BMP180;3260;52.438;13.502;2023-04-25T13:24:20;100231.00;;;12.60
6454;BMP180;3260;52.438;13.502;2023-04-25T13:26:49;100234.00;;;13.10
6454;BMP180;3260;52.438;13.502;2023-04-25T13:29:17;100235.00;;;13.80
6454;BMP180;3260;52.438;13.502;2023-04-25T13:31:45;100240.00;;;17.00
6454;BMP180;3260;52.438;13.502;2023-04-25T13:34:13;100249.00;;;19.90
6454;BMP180;3260;52.438;13.502;2023-04-25T13:36:43;100246.00;;;19.00
6454;BMP180;3260;52.438;13.502;2023-04-25T13:39:12;100249.00;;;16.80
6454;BMP180;3260;52.438;13.502;2023-04-25T13:41:41;100246.00;;;16.10
6454;BMP180;3260;52.438;13.502;2023-04-25T13:44:09;100258.00;;;15.10
6454;BMP180;3260;52.438;13.502;2023-04-25T13:46:38;100251.00;;;14.70
6454;BMP180;3260;52.438;13.502;2023-04-25T13:49:13;100252.00;;;14.10
6454;BMP180;3260;52.438;13.502;2023-04-25T13:51:43;100237.00;;;13.40
6454;BMP180;3260;52.438;13.502;2023-04-25T13:54:12;100253.00;;;13.20
6454;BMP180;3260;52.438;13.502;2023-04-25T13:56:41;100254.00;;;13.50
6454;BMP180;3260;52.438;13.502;2023-04-25T13:59:10;100259.00;;;14.20
6454;BMP180;3260;52.438;13.502;2023-04-25T14:01:38;100271.00;;;15.40
6454;BMP180;3260;52.438;13.502;2023-04-25T14:04:07;100273.00;;;17.40
6454;BMP180;3260;52.438;13.502;2023-04-25T14:06:35;100277.00;;;18.50
6454;BMP180;3260;52.438;13.502;2023-04-25T14:09:05;100275.00;;;18.10
6454;BMP180;3260;52.438;13.502;2023-04-25T14:11:34;100280.00;;;16.20
6454;BMP180;3260;52.438;13.502;2023-04-25T14:14:02;100268.00;;;15.10
6454;BMP180;3260;52.438;13.502;2023-04-25T14:16:31;100268.00;;;13.50
6454;BMP180;3260;52.438;13.502;2023-04-25T14:18:59;100272.00;;;13.00
6454;BMP180;3260;52.438;13.502;2023-04-25T14:21:29;100258.00;;;12.50
6454;BMP180;3260;52.438;13.502;2023-04-25T14:23:59;100275.00;;;12.10
6454;BMP180;3260;52.438;13.502;2023-04-25T14:26:28;100287.00;;;11.60
6454;BMP180;3260;52.438;13.502;2023-04-25T14:28:57;100280.00;;;11.30
6454;BMP180;3260;52.438;13.502;2023-04-25T14:31:25;100293.00;;;11.00
6454;BMP180;3260;52.438;13.502;2023-04-25T14:33:54;100290.00;;;10.60
6454;BMP180;3260;52.438;13.502;2023-04-25T14:36:25;100296.00;;;10.80
6454;BMP180;3260;52.438;13.502;2023-04-25T14:38:54;100294.00;;;10.70
6454;BMP180;3260;52.438;13.502;2023-04-25T14:41:24;100303.00;;;10.60
6454;BMP180;3260;52.438;13.502;2023-04-25T14:43:54;100304.00;;;10.60
6454;BMP180;3260;52.438;13.502;2023-04-25T14:46:24;100289.00;;;10.70
6454;BMP180;3260;52.438;13.502;2023-04-25T14:48:52;100300.00;;;10.60
6454;BMP180;3260;52.438;13.502;2023-04-25T14:51:22;100292.00;;;10.70
6454;BMP180;3260;52.438;13.502;2023-04-25T14:53:51;100297.00;;;11.20
6454;BMP180;3260;52.438;13.502;2023-04-25T14:56:20;100307.00;;;12.00
6454;BMP180;3260;52.438;13.502;2023-04-25T14:58:48;100314.00;;;12.70
6454;BMP180;3260;52.438;13.502;2023-04-25T15:01:19;100316.00;;;12.80
6454;BMP180;3260;52.438;13.502;2023-04-25T15:03:48;100311.00;;;13.70
6454;BMP180;3260;52.438;13.502;2023-04-25T15:06:19;100316.00;;;14.20
6454;BMP180;3260;52.438;13.502;2023-04-25T15:08:47;100311.00;;;13.50
6454;BMP180;3260;52.438;13.502;2023-04-25T15:11:15;100314.00;;;13.40
6454;BMP180;3260;52.438;13.502;2023-04-25T15:13:43;100313.00;;;12.60
6454;BMP180;3260;52.438;13.502;2023-04-25T15:16:12;100321.00;;;12.10
6454;BMP180;3260;52.438;13.502;2023-04-25T15:18:41;100311.00;;;11.70
6454;BMP180;3260;52.438;13.502;2023-04-25T15:21:10;100317.00;;;11.70
6454;BMP180;3260;52.438;13.502;2023-04-25T15:23:38;100311.00;;;11.80
6454;BMP180;3260;52.438;13.502;2023-04-25T15:26:06;100309.00;;;11.80
6454;BMP180;3260;52.438;13.502;2023-04-25T15:28:35;100306.00;;;11.90
6454;BMP180;3260;52.438;13.502;2023-04-25T15:31:03;100312.00;;;11.80
6454;BMP180;3260;52.438;13.502;2023-04-25T15:33:32;100313.00;;;11.90
6454;BMP180;3260;52.438;13.502;2023-04-25T15:36:02;100306.00;;;12.00
6454;BMP180;3260;52.438;13.502;2023-04-25T15:38:31;100308.00;;;12.20
6454;BMP180;3260;52.438;13.502;2023-04-25T15:40:59;100319.00;;;13.10
6454;BMP180;3260;52.438;13.502;2023-04-25T15:43:27;100309.00;;;14.50
6454;BMP180;3260;52.438;13.502;2023-04-25T15:45:55;100308.00;;;15.50
6454;BMP180;3260;52.438;13.502;2023-04-25T15:48:24;100316.00;;;15.40
6454;BMP180;3260;52.438;13.502;2023-04-25T15:50:52;100318.00;;;14.20
6454;BMP180;3260;52.438;13.502;2023-04-25T15:53:22;100324.00;;;12.90
6454;BMP180;3260;52.438;13.502;2023-04-25T15:55:51;100319.00;;;12.50
6454;BMP180;3260;52.438;13.502;2023-04-25T15:58:19;100315.00;;;13.00
6454;BMP180;3260;52.438;13.502;2023-04-25T16:00:48;100303.00;;;12.20
6454;BMP180;3260;52.438;13.502;2023-04-25T16:03:17;100312.00;;;12.10
6454;BMP180;3260;52.438;13.502;2023-04-25T16:05:45;100335.00;;;11.80
6454;BMP180;3260;52.438;13.502;2023-04-25T16:08:14;100335.00;;;12.40
6454;BMP180;3260;52.438;13.502;2023-04-25T16:10:44;100330.00;;;12.10
6454;BMP180;3260;52.438;13.502;2023-04-25T16:13:12;100330.00;;;11.60
6454;BMP180;3260;52.438;13.502;2023-04-25T16:15:40;100331.00;;;11.30
6454;BMP180;3260;52.438;13.502;2023-04-25T16:18:08;100339.00;;;11.20
6454;BMP180;3260;52.438;13.502;2023-04-25T16:20:37;100330.00;;;10.70
6454;BMP180;3260;52.438;13.502;2023-04-25T16:23:05;100326.00;;;10.80
6454;BMP180;3260;52.438;13.502;2023-04-25T16:25:33;100338.00;;;10.70
6454;BMP180;3260;52.438;13.502;2023-04-25T16:28:03;100320.00;;;10.80
6454;BMP180;3260;52.438;13.502;2023-04-25T16:30:31;100336.00;;;10.60
6454;BMP180;3260;52.438;13.502;2023-04-25T16:32:59;100319.00;;;10.40
6454;BMP180;3260;52.438;13.502;2023-04-25T16:35:28;100341.00;;;10.40
6454;BMP180;3260;52.438;13.502;2023-04-25T16:37:58;100336.00;;;10.40
6454;BMP180;3260;52.438;13.502;2023-04-25T16:40:26;100344.00;;;10.30
6454;BMP180;3260;52.438;13.502;2023-04-25T16:42:54;100340.00;;;10.10
6454;BMP180;3260;52.438;13.502;2023-04-25T16:45:25;100332.00;;;10.00
6454;BMP180;3260;52.438;13.502;2023-04-25T16:47:53;100342.00;;;10.40
6454;BMP180;3260;52.438;13.502;2023-04-25T16:50:22;100348.00;;;10.50
6454;BMP180;3260;52.438;13.502;2023-04-25T16:52:51;100350.00;;;10.00
6454;BMP180;3260;52.438;13.502;2023-04-25T16:55:20;100351.00;;;9.80
6454;BMP180;3260;52.438;13.502;2023-04-25T16:57:48;100345.00;;;9.90
6454;BMP180;3260;52.438;13.502;2023-04-25T17:00:17;100352.00;;;9.90
6454;BMP180;3260;52.438;13.502;2023-04-25T17:02:47;100355.00;;;9.60
6454;BMP180;3260;52.438;13.502;2023-04-25T17:05:17;100348.00;;;9.90
6454;BMP180;3260;52.438;13.502;2023-04-25T17:07:45;100356.00;;;10.10
6454;BMP180;3260;52.438;13.502;2023-04-25T17:10:13;100342.00;;;10.10
6454;BMP180;3260;52.438;13.502;2023-04-25T17:12:42;100368.00;;;10.10
6454;BMP180;3260;52.438;13.502;2023-04-25T17:15:10;100347.00;;;10.20
6454;BMP180;3260;52.438;13.502;2023-04-25T17:17:38;100356.00;;;10.80
6454;BMP180;3260;52.438;13.502;2023-04-25T17:20:09;100356.00;;;10.80
6454;BMP180;3260;52.438;13.502;2023-04-25T17:22:39;100358.00;;;10.70
6454;BMP180;3260;52.438;13.502;2023-04-25T17:25:09;100357.00;;;10.70
6454;BMP180;3260;52.438;13.502;2023-04-25T17:27:37;100355.00;;;11.30
6454;BMP180;3260;52.438;13.502;2023-04-25T17:30:06;100361.00;;;12.00
6454;BMP180;3260;52.438;13.502;2023-04-25T17:32:35;100377.00;;;12.00
6454;BMP180;3260;52.438;13.502;2023-04-25T17:35:05;100369.00;;;12.80
6454;BMP180;3260;52.438;13.502;2023-04-25T17:37:34;100380.00;;;13.20
6454;BMP180;3260;52.438;13.502;2023-04-25T17:40:04;100370.00;;;12.20
6454;BMP180;3260;52.438;13.502;2023-04-25T17:42:32;100373.00;;;11.70
6454;BMP180;3260;52.438;13.502;2023-04-25T17:45:00;100374.00;;;10.90
6454;BMP180;3260;52.438;13.502;2023-04-25T17:47:29;100385.00;;;10.60
6454;BMP180;3260;52.438;13.502;2023-04-25T17:49:57;100381.00;;;10.20
6454;BMP180;3260;52.438;13.502;2023-04-25T17:52:26;100383.00;;;9.70
6454;BMP180;3260;52.438;13.502;2023-04-25T17:54:56;100380.00;;;9.90
6454;BMP180;3260;52.438;13.502;2023-04-25T17:57:24;100391.00;;;9.60
6454;BMP180;3260;52.438;13.502;2023-04-25T17:59:53;100381.00;;;9.50
6454;BMP180;3260;52.438;13.502;2023-04-25T18:02:23;100373.00;;;9.60
6454;BMP180;3260;52.438;13.502;2023-04-25T18:04:53;100387.00;;;9.30
6454;BMP180;3260;52.438;13.502;2023-04-25T18:07:23;100391.00;;;9.30
6454;BMP180;3260;52.438;13.502;2023-04-25T18:09:51;100391.00;;;9.30
6454;BMP180;3260;52.438;13.502;2023-04-25T18:12:20;100392.00;;;9.10
6454;BMP180;3260;52.438;13.502;2023-04-25T18:14:49;100399.00;;;9.10
6454;BMP180;3260;52.438;13.502;2023-04-25T18:17:17;100401.00;;;8.80
6454;BMP180;3260;52.438;13.502;2023-04-25T18:19:46;100395.00;;;8.80
6454;BMP180;3260;52.438;13.502;2023-04-25T18:22:17;100404.00;;;9.00
6454;BMP180;3260;52.438;13.502;2023-04-25T18:24:45;100412.00;;;8.80
6454;BMP180;3260;52.438;13.502;2023-04-25T18:27:13;100406.00;;;8.80
6454;BMP180;3260;52.438;13.502;2023-04-25T18:29:43;100411.00;;;8.90
6454;BMP180;3260;52.438;13.502;2023-04-25T18:32:11;100412.00;;;9.00